Time;durP1;ratioP1;P1;durP2;ratioP2;P2;SDS_P1;SDS_P2;PMS_P1;PMS_P2;Temp;Humidity;BMP_temperature;BMP_pressure;BME280_temperature;BME280_humidity;BME280_pressure;Samples;Min_cycle;Max_cycle;Signal;HPM_P1;HPM_P2
2023/05/15 00:00:13;;;;;;;18.85;11.60;;;;;;;;;;5011821;28;20049;-56
2023/05/15 00:02:39;;;;;;;15.35;11.85;;;;;;;;;;5011590;28;20100;-56
2023/05/15 00:05:07;;;;;;;17.40;9.95;;;;;;;;;;5012832;28;20049;-56
2023/05/15 00:07:34;;;;;;;17.95;11.85;;;;;;;;;;5015353;28;20076;-56
2023/05/15 00:10:00;;;;;;;17.08;11.25;;;;;;;;;;5013019;28;20046;-56
2023/05/15 00:12:27;;;;;;;17.85;11.90;;;;;;;;;;5010355;28;20500;-56
2023/05/15 00:14:53;;;;;;;19.77;12.50;;;;;;;;;;5013310;28;20554;-56
2023/05/15 00:17:19;;;;;;;18.30;12.65;;;;;;;;;;5014268;28;20056;-56
2023/05/15 00:19:46;;;;;;;19.48;12.23;;;;;;;;;;5012080;28;20089;-56
2023/05/15 00:22:12;;;;;;;19.60;12.43;;;;;;;;;;5011476;28;20030;-56
2023/05/15 00:24:38;;;;;;;19.10;13.20;;;;;;;;;;5008082;28;20037;-56
2023/05/15 00:27:04;;;;;;;19.38;10.98;;;;;;;;;;5005690;28;20038;-56
2023/05/15 00:29:30;;;;;;;18.77;11.52;;;;;;;;;;5020811;28;20049;-56
2023/05/15 00:31:56;;;;;;;19.50;13.05;;;;;;;;;;5007010;28;20672;-56
2023/05/15 00:34:22;;;;;;;20.08;13.07;;;;;;;;;;5006933;28;20902;-57
2023/05/15 00:36:48;;;;;;;20.52;13.20;;;;;;;;;;5010396;28;20068;-56
2023/05/15 00:39:14;;;;;;;24.45;13.27;;;;;;;;;;5013068;28;20056;-56
2023/05/15 00:41:41;;;;;;;23.58;14.60;;;;;;;;;;5007390;28;20578;-56
2023/05/15 00:44:08;;;;;;;22.02;13.13;;;;;;;;;;5005893;28;20097;-56
2023/05/15 00:46:35;;;;;;;25.73;16.25;;;;;;;;;;5005295;28;20572;-56
2023/05/15 00:49:02;;;;;;;34.88;16.00;;;;;;;;;;5006030;28;20045;-56
2023/05/15 00:51:28;;;;;;;25.23;15.27;;;;;;;;;;5007556;28;20050;-56
2023/05/15 00:53:55;;;;;;;27.23;15.27;;;;;;;;;;5008233;28;20044;-56
2023/05/15 00:56:21;;;;;;;24.58;15.32;;;;;;;;;;5015503;28;20089;-57
2023/05/15 00:58:48;;;;;;;30.10;17.95;;;;;;;;;;5013945;28;20073;-56
2023/05/15 01:01:15;;;;;;;28.83;17.90;;;;;;;;;;5014309;28;20038;-56
2023/05/15 01:03:42;;;;;;;25.20;15.75;;;;;;;;;;5014135;28;20137;-56
2023/05/15 01:06:08;;;;;;;25.88;15.13;;;;;;;;;;5044444;28;20034;-56
2023/05/15 01:08:42;;;;;;;30.38;17.98;;;;;;;;;;5014905;28;20748;-55
2023/05/15 01:11:08;;;;;;;28.95;15.38;;;;;;;;;;5012638;28;20053;-57
2023/05/15 01:13:34;;;;;;;28.98;17.15;;;;;;;;;;5013991;28;20104;-56
2023/05/15 01:16:00;;;;;;;30.00;17.92;;;;;;;;;;5009657;28;20050;-56
2023/05/15 01:18:31;;;;;;;28.67;16.10;;;;;;;;;;5010255;28;20045;-56
2023/05/15 01:21:26;;;;;;;23.20;13.38;;;;;;;;;;5006422;28;20571;-56
2023/05/15 01:24:03;;;;;;;29.83;17.30;;;;;;;;;;5011204;28;20428;-56
2023/05/15 01:26:45;;;;;;;26.50;16.05;;;;;;;;;;5013822;28;20050;-56
2023/05/15 01:29:17;;;;;;;23.30;11.93;;;;;;;;;;5012880;28;20547;-56
2023/05/15 01:31:45;;;;;;;29.95;17.63;;;;;;;;;;5014228;28;20049;-57
2023/05/15 01:34:12;;;;;;;23.45;14.88;;;;;;;;;;5012203;28;20061;-56
2023/05/15 01:36:43;;;;;;;24.98;15.23;;;;;;;;;;5009348;28;20045;-56
2023/05/15 01:39:10;;;;;;;20.48;11.40;;;;;;;;;;5012863;28;20046;-56
2023/05/15 01:41:41;;;;;;;30.25;16.50;;;;;;;;;;5013805;28;20046;-56
2023/05/15 01:44:19;;;;;;;25.15;15.48;;;;;;;;;;5011762;28;20278;-56
2023/05/15 01:46:45;;;;;;;26.58;12.80;;;;;;;;;;5012006;28;20042;-56
2023/05/15 01:49:12;;;;;;;27.23;15.93;;;;;;;;;;5014483;28;20049;-56
2023/05/15 01:51:39;;;;;;;34.00;17.50;;;;;;;;;;5010657;28;20467;-56
2023/05/15 01:54:06;;;;;;;26.35;13.43;;;;;;;;;;5006154;28;20061;-56
2023/05/15 01:56:33;;;;;;;27.17;13.80;;;;;;;;;;5027020;28;20120;-56
2023/05/15 01:58:59;;;;;;;24.75;12.93;;;;;;;;;;5010136;28;20049;-56
2023/05/15 02:01:27;;;;;;;27.80;16.60;;;;;;;;;;5039947;28;20558;-56
2023/05/15 02:03:54;;;;;;;29.08;15.05;;;;;;;;;;5004785;28;20048;-56
2023/05/15 02:06:20;;;;;;;31.35;17.33;;;;;;;;;;5005739;28;20510;-56
2023/05/15 02:08:47;;;;;;;30.35;17.20;;;;;;;;;;5004935;28;20050;-56
2023/05/15 02:11:14;;;;;;;27.83;16.83;;;;;;;;;;5024198;28;20231;-56
2023/05/15 02:13:42;;;;;;;34.00;18.50;;;;;;;;;;5008650;28;20038;-56
2023/05/15 02:16:08;;;;;;;30.33;17.13;;;;;;;;;;5007848;28;20042;-56
2023/05/15 02:18:34;;;;;;;34.17;17.38;;;;;;;;;;5009338;28;20042;-56
2023/05/15 02:21:01;;;;;;;32.25;18.40;;;;;;;;;;5009292;28;20524;-56
2023/05/15 02:23:27;;;;;;;36.15;17.48;;;;;;;;;;5047612;28;20050;-56
2023/05/15 02:26:12;;;;;;;31.00;18.20;;;;;;;;;;5016001;28;20050;-56
2023/05/15 02:28:44;;;;;;;39.17;19.17;;;;;;;;;;5016165;28;20049;-56
2023/05/15 02:31:30;;;;;;;35.22;17.20;;;;;;;;;;5008305;28;20038;-56
2023/05/15 02:34:06;;;;;;;31.73;15.60;;;;;;;;;;5005822;28;20053;-56
2023/05/15 02:36:33;;;;;;;20.90;12.02;;;;;;;;;;5008075;28;20053;-56
2023/05/15 02:38:59;;;;;;;33.08;17.17;;;;;;;;;;5008802;28;20165;-56
2023/05/15 02:41:26;;;;;;;32.95;17.48;;;;;;;;;;5007522;28;20125;-57
2023/05/15 02:43:53;;;;;;;37.22;16.83;;;;;;;;;;5008088;28;20524;-56
2023/05/15 02:46:20;;;;;;;34.08;19.38;;;;;;;;;;5007087;28;20064;-56
2023/05/15 02:48:47;;;;;;;35.22;18.50;;;;;;;;;;5011237;28;20046;-56
2023/05/15 02:51:14;;;;;;;39.13;19.30;;;;;;;;;;5010580;28;20131;-56
2023/05/15 02:53:41;;;;;;;35.75;20.10;;;;;;;;;;5010658;28;20049;-56
2023/05/15 02:56:08;;;;;;;34.97;20.25;;;;;;;;;;5014242;28;20048;-56
2023/05/15 02:58:34;;;;;;;33.63;17.73;;;;;;;;;;5047245;28;20050;-56
2023/05/15 03:01:00;;;;;;;38.80;18.77;;;;;;;;;;5013958;28;20038;-60
2023/05/15 03:03:26;;;;;;;39.00;20.35;;;;;;;;;;5014559;28;20041;-60
2023/05/15 03:05:53;;;;;;;37.72;17.98;;;;;;;;;;5014107;28;20053;-60
2023/05/15 03:08:19;;;;;;;38.50;19.27;;;;;;;;;;5015199;28;20521;-59
2023/05/15 03:10:45;;;;;;;29.83;17.70;;;;;;;;;;5015663;28;20833;-59
2023/05/15 03:13:11;;;;;;;36.63;17.27;;;;;;;;;;5015404;28;20627;-59
2023/05/15 03:15:37;;;;;;;35.47;19.17;;;;;;;;;;5014258;28;20041;-59
2023/05/15 03:18:03;;;;;;;41.00;19.00;;;;;;;;;;5013915;28;20508;-59
2023/05/15 03:20:29;;;;;;;20.05;10.55;;;;;;;;;;5013749;28;20045;-59
2023/05/15 03:22:55;;;;;;;36.90;18.35;;;;;;;;;;5013547;28;20126;-59
2023/05/15 03:25:22;;;;;;;33.17;17.75;;;;;;;;;;5014938;28;20049;-59
2023/05/15 03:27:48;;;;;;;26.10;13.90;;;;;;;;;;5013984;28;20741;-59
2023/05/15 03:30:14;;;;;;;31.88;15.05;;;;;;;;;;5002691;28;20042;-59
2023/05/15 03:32:40;;;;;;;38.40;19.88;;;;;;;;;;5005904;28;20113;-59
2023/05/15 03:35:06;;;;;;;34.05;15.45;;;;;;;;;;5007314;28;20046;-60
2023/05/15 03:37:32;;;;;;;38.00;19.75;;;;;;;;;;5006214;28;20089;-60
2023/05/15 03:39:58;;;;;;;38.20;21.10;;;;;;;;;;5007644;28;20042;-60
2023/05/15 03:42:24;;;;;;;36.90;19.75;;;;;;;;;;5005277;28;20536;-60
2023/05/15 03:44:50;;;;;;;43.88;21.20;;;;;;;;;;5014743;28;20052;-59
2023/05/15 03:47:17;;;;;;;43.50;18.85;;;;;;;;;;5013560;28;20046;-60
2023/05/15 03:49:43;;;;;;;37.08;18.02;;;;;;;;;;5015140;28;20120;-60
2023/05/15 03:52:09;;;;;;;43.33;20.10;;;;;;;;;;5012486;28;20077;-59
2023/05/15 03:54:35;;;;;;;26.35;13.77;;;;;;;;;;5014109;28;20038;-60
2023/05/15 03:57:03;;;;;;;41.45;21.83;;;;;;;;;;5015670;28;20056;-60
2023/05/15 03:59:30;;;;;;;42.55;21.15;;;;;;;;;;5004659;28;20182;-60
2023/05/15 04:01:56;;;;;;;47.33;20.80;;;;;;;;;;5005277;28;20088;-60
2023/05/15 04:04:22;;;;;;;40.17;20.48;;;;;;;;;;5007353;28;20049;-60
2023/05/15 04:06:49;;;;;;;42.78;18.13;;;;;;;;;;5006874;28;20129;-60
2023/05/15 04:09:15;;;;;;;38.15;17.75;;;;;;;;;;5006479;28;20125;-59
2023/05/15 04:11:41;;;;;;;43.20;19.33;;;;;;;;;;5006499;28;20044;-60
2023/05/15 04:14:07;;;;;;;41.72;19.90;;;;;;;;;;5006918;28;20042;-60
2023/05/15 04:16:33;;;;;;;43.60;19.88;;;;;;;;;;5005478;28;20108;-60
2023/05/15 04:19:00;;;;;;;48.47;25.15;;;;;;;;;;5012266;28;20042;-60
2023/05/15 04:21:26;;;;;;;50.53;21.33;;;;;;;;;;5011704;28;20053;-60
2023/05/15 04:23:52;;;;;;;45.90;22.75;;;;;;;;;;5015132;28;20038;-60
2023/05/15 04:26:18;;;;;;;41.47;21.15;;;;;;;;;;5005873;28;20050;-60
2023/05/15 04:28:44;;;;;;;41.42;19.50;;;;;;;;;;5007226;28;20887;-60
2023/05/15 04:31:10;;;;;;;39.95;21.70;;;;;;;;;;5006050;28;20136;-62
2023/05/15 04:33:38;;;;;;;45.20;21.98;;;;;;;;;;5004992;28;20069;-60
2023/05/15 04:36:04;;;;;;;44.47;21.42;;;;;;;;;;5005099;28;20042;-60
2023/05/15 04:38:31;;;;;;;51.00;23.40;;;;;;;;;;5005380;28;20053;-60
2023/05/15 04:40:57;;;;;;;49.60;23.63;;;;;;;;;;5005267;28;20049;-60
2023/05/15 04:43:23;;;;;;;44.28;23.50;;;;;;;;;;5005516;28;20054;-60
2023/05/15 04:45:49;;;;;;;46.20;22.55;;;;;;;;;;5005152;28;20054;-60
2023/05/15 04:48:17;;;;;;;56.28;24.27;;;;;;;;;;5005990;28;20625;-60
2023/05/15 04:50:44;;;;;;;42.38;18.80;;;;;;;;;;5007002;28;20540;-60
2023/05/15 04:53:10;;;;;;;35.92;16.13;;;;;;;;;;5006864;28;20223;-60
2023/05/15 04:55:36;;;;;;;44.42;20.35;;;;;;;;;;5013655;28;20048;-60
2023/05/15 04:58:02;;;;;;;43.08;20.35;;;;;;;;;;5014422;28;20046;-60
2023/05/15 05:00:28;;;;;;;33.80;16.55;;;;;;;;;;5028202;28;20108;-60
2023/05/15 05:02:55;;;;;;;40.30;22.00;;;;;;;;;;5012333;28;20053;-60
2023/05/15 05:05:21;;;;;;;37.90;20.13;;;;;;;;;;5010793;28;20149;-60
2023/05/15 05:07:47;;;;;;;34.83;15.60;;;;;;;;;;5013300;28;20042;-60
2023/05/15 05:10:13;;;;;;;41.92;21.05;;;;;;;;;;5006597;28;20093;-60
2023/05/15 05:12:39;;;;;;;38.60;19.60;;;;;;;;;;5011998;28;20153;-60
2023/05/15 05:15:05;;;;;;;39.30;18.05;;;;;;;;;;5013240;28;20046;-60
2023/05/15 05:17:31;;;;;;;42.05;18.60;;;;;;;;;;5013972;28;20542;-60
2023/05/15 05:19:57;;;;;;;46.13;21.35;;;;;;;;;;5013940;28;20038;-60
2023/05/15 05:22:23;;;;;;;53.75;21.92;;;;;;;;;;5010658;28;20054;-57
2023/05/15 05:24:50;;;;;;;40.80;21.52;;;;;;;;;;5011740;28;20042;-57
2023/05/15 05:27:16;;;;;;;39.33;22.63;;;;;;;;;;5006723;28;20132;-56
2023/05/15 05:29:42;;;;;;;34.05;15.73;;;;;;;;;;5004914;28;20038;-57
2023/05/15 05:32:08;;;;;;;45.47;20.95;;;;;;;;;;5005561;28;20056;-56
2023/05/15 05:34:34;;;;;;;36.30;19.30;;;;;;;;;;5003796;28;20046;-57
2023/05/15 05:37:00;;;;;;;46.88;19.85;;;;;;;;;;5004497;28;20268;-57
2023/05/15 05:39:26;;;;;;;45.95;20.58;;;;;;;;;;5001568;28;20030;-57
2023/05/15 05:41:52;;;;;;;39.92;19.80;;;;;;;;;;5005069;28;20677;-57
2023/05/15 05:44:18;;;;;;;38.60;21.38;;;;;;;;;;5009247;28;20050;-57
2023/05/15 05:46:45;;;;;;;29.58;14.63;;;;;;;;;;5015172;28;20540;-57
2023/05/15 05:49:11;;;;;;;37.65;18.35;;;;;;;;;;5016767;28;20046;-57
2023/05/15 05:51:38;;;;;;;42.13;19.83;;;;;;;;;;5015974;28;20048;-57
2023/05/15 05:54:04;;;;;;;37.33;19.92;;;;;;;;;;5012183;28;20046;-56
2023/05/15 05:56:30;;;;;;;37.45;19.33;;;;;;;;;;5020804;28;20044;-57
2023/05/15 05:58:56;;;;;;;36.03;17.10;;;;;;;;;;5002604;28;20159;-57
2023/05/15 06:01:22;;;;;;;38.60;17.90;;;;;;;;;;5007086;28;20038;-57
2023/05/15 06:03:48;;;;;;;33.63;18.23;;;;;;;;;;4999678;28;20054;-56
2023/05/15 06:06:14;;;;;;;37.83;20.58;;;;;;;;;;5003522;28;20046;-57
2023/05/15 06:08:40;;;;;;;38.95;17.95;;;;;;;;;;5000742;28;21225;-60
2023/05/15 06:11:07;;;;;;;31.50;18.30;;;;;;;;;;5002144;28;20104;-61
2023/05/15 06:13:33;;;;;;;38.85;15.27;;;;;;;;;;5002011;28;20045;-60
2023/05/15 06:15:59;;;;;;;31.23;17.83;;;;;;;;;;5004045;28;20949;-60
2023/05/15 06:18:25;;;;;;;28.27;16.30;;;;;;;;;;5008257;28;20097;-60
2023/05/15 06:20:52;;;;;;;28.75;15.10;;;;;;;;;;5011523;28;20042;-60
2023/05/15 06:23:18;;;;;;;33.90;16.45;;;;;;;;;;5009398;28;20054;-61
2023/05/15 06:25:44;;;;;;;29.70;17.85;;;;;;;;;;5009838;28;20049;-61
2023/05/15 06:28:10;;;;;;;28.10;15.88;;;;;;;;;;5012492;28;20038;-60
2023/05/15 06:30:36;;;;;;;30.42;17.05;;;;;;;;;;5010067;28;20049;-60
2023/05/15 06:33:02;;;;;;;40.50;18.83;;;;;;;;;;5012778;28;20209;-60
2023/05/15 06:35:28;;;;;;;32.15;16.92;;;;;;;;;;5011157;28;20636;-61
2023/05/15 06:37:54;;;;;;;27.95;15.98;;;;;;;;;;5011747;28;20042;-60
2023/05/15 06:40:20;;;;;;;30.70;16.77;;;;;;;;;;5008145;28;20050;-60
2023/05/15 06:42:47;;;;;;;30.02;16.00;;;;;;;;;;5010465;28;20073;-60
2023/05/15 06:45:13;;;;;;;34.10;18.35;;;;;;;;;;5007298;28;20050;-61
2023/05/15 06:47:39;;;;;;;34.25;20.90;;;;;;;;;;5010179;28;20244;-61
2023/05/15 06:50:05;;;;;;;34.42;18.70;;;;;;;;;;5006970;28;20148;-61
2023/05/15 06:52:31;;;;;;;37.25;18.70;;;;;;;;;;5010571;28;21125;-60
2023/05/15 06:54:57;;;;;;;27.95;17.98;;;;;;;;;;5000317;28;20041;-60
2023/05/15 06:57:23;;;;;;;31.45;17.65;;;;;;;;;;5010246;28;20046;-61
2023/05/15 06:59:49;;;;;;;29.92;16.90;;;;;;;;;;5043426;28;20042;-61
2023/05/15 07:02:15;;;;;;;29.63;17.98;;;;;;;;;;5013229;28;20053;-61
2023/05/15 07:04:41;;;;;;;28.60;18.48;;;;;;;;;;5015614;28;20677;-61
2023/05/15 07:07:07;;;;;;;32.08;17.35;;;;;;;;;;5015566;28;20532;-61
2023/05/15 07:09:34;;;;;;;31.73;17.00;;;;;;;;;;5012784;28;20046;-61
2023/05/15 07:12:00;;;;;;;33.42;16.60;;;;;;;;;;5015763;28;20129;-61
2023/05/15 07:14:26;;;;;;;33.33;17.58;;;;;;;;;;5014057;28;20048;-60
2023/05/15 07:16:52;;;;;;;28.23;17.50;;;;;;;;;;5016712;28;20134;-61
2023/05/15 07:19:21;;;;;;;26.30;15.43;;;;;;;;;;5015725;28;20184;-61
2023/05/15 07:21:48;;;;;;;23.83;15.05;;;;;;;;;;5014421;28;20127;-60
2023/05/15 07:24:14;;;;;;;27.10;15.65;;;;;;;;;;5016177;28;20049;-61
2023/05/15 07:26:40;;;;;;;26.30;15.07;;;;;;;;;;5015033;28;20046;-60
2023/05/15 07:29:06;;;;;;;24.25;15.82;;;;;;;;;;5015315;28;20042;-60
2023/05/15 07:31:32;;;;;;;28.08;15.75;;;;;;;;;;5011711;28;20615;-61
2023/05/15 07:33:58;;;;;;;26.75;15.25;;;;;;;;;;5012931;28;20528;-61
2023/05/15 07:36:24;;;;;;;26.17;15.88;;;;;;;;;;5011608;28;20038;-61
2023/05/15 07:38:50;;;;;;;28.73;15.60;;;;;;;;;;5014710;28;20050;-61
2023/05/15 07:41:16;;;;;;;23.00;13.60;;;;;;;;;;5014201;28;20157;-61
2023/05/15 07:43:43;;;;;;;24.98;16.35;;;;;;;;;;5011833;28;20135;-61
2023/05/15 07:46:09;;;;;;;20.67;14.35;;;;;;;;;;5012966;28;20054;-60
2023/05/15 07:48:35;;;;;;;23.08;13.80;;;;;;;;;;5013556;28;20082;-61
2023/05/15 07:51:01;;;;;;;28.42;14.57;;;;;;;;;;5013884;28;20100;-61
2023/05/15 07:53:27;;;;;;;21.67;13.20;;;;;;;;;;5013067;28;20128;-61
2023/05/15 07:55:53;;;;;;;22.20;13.25;;;;;;;;;;5013706;28;20049;-61
2023/05/15 07:58:19;;;;;;;17.48;11.93;;;;;;;;;;5013968;28;20502;-61
2023/05/15 08:00:45;;;;;;;19.35;11.93;;;;;;;;;;5004831;28;20124;-57
2023/05/15 08:03:11;;;;;;;22.13;12.48;;;;;;;;;;5013285;28;20042;-57
2023/05/15 08:05:37;;;;;;;16.80;12.95;;;;;;;;;;5014578;28;20049;-57
2023/05/15 08:08:03;;;;;;;17.83;10.90;;;;;;;;;;5004665;28;20955;-58
2023/05/15 08:10:29;;;;;;;18.52;12.35;;;;;;;;;;5010468;28;20128;-57
2023/05/15 08:12:55;;;;;;;18.00;12.07;;;;;;;;;;5015300;28;20037;-57
2023/05/15 08:15:22;;;;;;;19.85;12.70;;;;;;;;;;5012547;28;20049;-57
2023/05/15 08:17:48;;;;;;;17.63;10.20;;;;;;;;;;5014194;28;20033;-57
2023/05/15 08:20:15;;;;;;;17.25;9.82;;;;;;;;;;5014075;28;20536;-57
2023/05/15 08:22:41;;;;;;;16.10;10.68;;;;;;;;;;5006033;28;20589;-57
2023/05/15 08:25:07;;;;;;;16.15;11.25;;;;;;;;;;5014448;28;20030;-57
2023/05/15 08:27:34;;;;;;;17.55;10.70;;;;;;;;;;5015404;28;20042;-57
2023/05/15 08:30:00;;;;;;;16.42;10.55;;;;;;;;;;5014098;28;20125;-57
2023/05/15 08:32:26;;;;;;;16.85;10.32;;;;;;;;;;5014971;28;20041;-57
2023/05/15 08:34:52;;;;;;;16.77;10.90;;;;;;;;;;5012893;28;20038;-58
2023/05/15 08:37:18;;;;;;;15.80;8.60;;;;;;;;;;5016547;28;20148;-57
2023/05/15 08:39:44;;;;;;;15.18;10.85;;;;;;;;;;5015387;28;20087;-57
2023/05/15 08:42:17;;;;;;;15.18;10.60;;;;;;;;;;5014418;28;20052;-57
2023/05/15 08:44:43;;;;;;;13.32;9.32;;;;;;;;;;5013110;28;20054;-57
2023/05/15 08:47:10;;;;;;;14.48;9.00;;;;;;;;;;5013238;28;20052;-57
2023/05/15 08:49:45;;;;;;;16.33;11.07;;;;;;;;;;5029378;28;20038;-57
2023/05/15 08:52:11;;;;;;;13.70;9.48;;;;;;;;;;5014197;28;20069;-57
2023/05/15 08:54:38;;;;;;;14.10;9.48;;;;;;;;;;5014616;28;20053;-57
2023/05/15 08:57:04;;;;;;;13.40;8.90;;;;;;;;;;5008100;28;20085;-57
2023/05/15 08:59:30;;;;;;;14.98;8.80;;;;;;;;;;5012290;28;20107;-57
2023/05/15 09:01:56;;;;;;;16.42;11.50;;;;;;;;;;5014149;28;20137;-57
2023/05/15 09:04:22;;;;;;;16.98;9.43;;;;;;;;;;5013001;28;20176;-57
2023/05/15 09:06:48;;;;;;;15.88;10.40;;;;;;;;;;5013486;28;20047;-57
2023/05/15 09:09:15;;;;;;;14.00;8.80;;;;;;;;;;5014641;28;20042;-57
2023/05/15 09:11:45;;;;;;;13.68;8.02;;;;;;;;;;5012287;28;20050;-57
2023/05/15 09:14:11;;;;;;;13.77;9.10;;;;;;;;;;5030150;28;20046;-57
2023/05/15 09:16:37;;;;;;;14.95;9.82;;;;;;;;;;5013720;28;20044;-57
2023/05/15 09:19:05;;;;;;;16.23;10.35;;;;;;;;;;5045005;28;20054;-57
2023/05/15 09:21:31;;;;;;;14.23;7.68;;;;;;;;;;5013587;28;20078;-57
2023/05/15 09:24:16;;;;;;;16.10;9.50;;;;;;;;;;5005638;28;20587;-57
2023/05/15 09:26:43;;;;;;;12.98;7.97;;;;;;;;;;5011708;28;20607;-57
2023/05/15 09:29:09;;;;;;;14.40;8.05;;;;;;;;;;5012850;28;20089;-57
2023/05/15 09:31:35;;;;;;;12.00;8.70;;;;;;;;;;5011953;28;20073;-57
2023/05/15 09:34:03;;;;;;;17.48;9.75;;;;;;;;;;5045319;28;20044;-57
2023/05/15 09:36:30;;;;;;;18.40;9.73;;;;;;;;;;5012439;28;20520;-57
2023/05/15 09:38:59;;;;;;;15.45;9.07;;;;;;;;;;5010461;28;20042;-57
2023/05/15 09:41:26;;;;;;;17.98;9.00;;;;;;;;;;5012433;28;20046;-57
2023/05/15 09:43:55;;;;;;;22.85;10.23;;;;;;;;;;5011405;28;20117;-57
2023/05/15 09:46:21;;;;;;;17.17;10.43;;;;;;;;;;5013126;28;20120;-57
2023/05/15 09:48:47;;;;;;;17.50;10.38;;;;;;;;;;5013677;28;20398;-57
2023/05/15 09:51:20;;;;;;;12.65;9.20;;;;;;;;;;5010776;28;20037;-57
2023/05/15 09:53:51;;;;;;;12.82;8.60;;;;;;;;;;5012379;28;20053;-58
2023/05/15 09:56:17;;;;;;;12.60;8.70;;;;;;;;;;5013526;28;20100;-57
2023/05/15 09:58:54;;;;;;;13.77;8.48;;;;;;;;;;5012795;28;20046;-57
2023/05/15 10:01:21;;;;;;;13.45;8.85;;;;;;;;;;5012780;28;20914;-57
2023/05/15 10:04:00;;;;;;;15.25;9.10;;;;;;;;;;5011452;28;20046;-57
2023/05/15 10:06:26;;;;;;;13.57;9.05;;;;;;;;;;5011728;28;20428;-57
2023/05/15 10:08:53;;;;;;;12.70;8.45;;;;;;;;;;5011147;28;20543;-57
2023/05/15 10:11:22;;;;;;;14.32;8.77;;;;;;;;;;5010622;28;20048;-57
2023/05/15 10:13:48;;;;;;;15.18;9.05;;;;;;;;;;5042041;28;20295;-57
2023/05/15 10:16:15;;;;;;;12.63;7.90;;;;;;;;;;5015221;28;20042;-58
2023/05/15 10:18:41;;;;;;;12.65;7.45;;;;;;;;;;5013071;28;20543;-57
2023/05/15 10:21:11;;;;;;;12.05;7.45;;;;;;;;;;5014033;28;20034;-57
2023/05/15 10:23:40;;;;;;;12.10;8.77;;;;;;;;;;5011295;28;20042;-57
2023/05/15 10:26:10;;;;;;;12.50;7.55;;;;;;;;;;5011090;28;20046;-57
2023/05/15 10:28:37;;;;;;;9.52;7.03;;;;;;;;;;5011544;28;20092;-57
2023/05/15 10:31:04;;;;;;;11.70;8.23;;;;;;;;;;5014947;28;20041;-57
2023/05/15 10:33:31;;;;;;;14.60;7.10;;;;;;;;;;5031421;28;20041;-57
2023/05/15 10:35:58;;;;;;;11.45;6.80;;;;;;;;;;5017664;28;20074;-57
2023/05/15 10:38:25;;;;;;;11.35;7.50;;;;;;;;;;5048236;28;20049;-57
2023/05/15 10:40:52;;;;;;;9.40;6.18;;;;;;;;;;5013467;28;20046;-57
2023/05/15 10:43:19;;;;;;;11.50;6.78;;;;;;;;;;5012973;28;20049;-57
2023/05/15 10:45:46;;;;;;;10.48;6.72;;;;;;;;;;5013214;28;20080;-56
2023/05/15 10:48:13;;;;;;;11.35;7.25;;;;;;;;;;5015141;28;20049;-57
2023/05/15 10:50:39;;;;;;;11.52;7.13;;;;;;;;;;5030817;28;20053;-57
2023/05/15 10:53:06;;;;;;;12.93;8.65;;;;;;;;;;5017072;28;20184;-57
2023/05/15 10:55:32;;;;;;;11.35;7.38;;;;;;;;;;5015226;28;20045;-56
2023/05/15 10:57:58;;;;;;;10.43;6.45;;;;;;;;;;5014370;28;20680;-57
2023/05/15 11:00:30;;;;;;;9.88;5.78;;;;;;;;;;5013998;28;20088;-57
2023/05/15 11:02:57;;;;;;;11.82;6.72;;;;;;;;;;5009245;28;20050;-56
2023/05/15 11:05:24;;;;;;;9.43;6.07;;;;;;;;;;5016234;28;20450;-57
2023/05/15 11:08:08;;;;;;;11.93;7.97;;;;;;;;;;5048556;28;20046;-56
2023/05/15 11:10:34;;;;;;;9.38;5.80;;;;;;;;;;5016698;28;20046;-56
2023/05/15 11:13:01;;;;;;;9.15;6.65;;;;;;;;;;5016551;28;20037;-56
2023/05/15 11:15:40;;;;;;;9.35;7.00;;;;;;;;;;5015964;28;20136;-57
2023/05/15 11:18:07;;;;;;;13.90;7.10;;;;;;;;;;5013775;28;20599;-57
2023/05/15 11:21:03;;;;;;;12.23;6.30;;;;;;;;;;5016468;28;20065;-57
2023/05/15 11:23:37;;;;;;;10.55;6.65;;;;;;;;;;5016881;28;20448;-57
2023/05/15 11:26:05;;;;;;;10.40;5.97;;;;;;;;;;5017449;28;20886;-57
2023/05/15 11:28:40;;;;;;;9.05;5.97;;;;;;;;;;5013674;28;20409;-57
2023/05/15 11:31:06;;;;;;;9.35;6.38;;;;;;;;;;5015850;28;20044;-57
2023/05/15 11:33:32;;;;;;;12.73;6.53;;;;;;;;;;5013019;28;20045;-57
2023/05/15 11:35:59;;;;;;;8.40;5.78;;;;;;;;;;5014072;28;20042;-57
2023/05/15 11:38:26;;;;;;;10.82;6.40;;;;;;;;;;5005767;28;20113;-57
2023/05/15 11:40:54;;;;;;;8.70;6.85;;;;;;;;;;5015903;28;20599;-57
2023/05/15 11:43:22;;;;;;;10.07;6.63;;;;;;;;;;5014079;28;20054;-56
2023/05/15 11:45:50;;;;;;;10.70;6.35;;;;;;;;;;5015324;28;20058;-57
2023/05/15 11:48:17;;;;;;;11.57;6.80;;;;;;;;;;5013728;28;20783;-56
2023/05/15 11:50:44;;;;;;;14.30;7.82;;;;;;;;;;5012666;28;20045;-57
2023/05/15 11:53:10;;;;;;;11.00;6.97;;;;;;;;;;5013410;28;20046;-57
2023/05/15 11:55:37;;;;;;;12.27;7.40;;;;;;;;;;5014378;28;20124;-57
2023/05/15 11:58:03;;;;;;;10.93;6.88;;;;;;;;;;5014597;28;20100;-57
2023/05/15 12:00:30;;;;;;;11.85;6.85;;;;;;;;;;5017112;28;20045;-56
2023/05/15 12:02:56;;;;;;;8.57;6.00;;;;;;;;;;5015374;28;20512;-57
2023/05/15 12:05:23;;;;;;;11.10;6.78;;;;;;;;;;5011933;28;20456;-56
2023/05/15 12:07:49;;;;;;;12.80;8.05;;;;;;;;;;5015563;28;20045;-57
2023/05/15 12:10:15;;;;;;;13.80;9.07;;;;;;;;;;5015522;28;20065;-56
2023/05/15 12:12:42;;;;;;;10.70;7.43;;;;;;;;;;5015869;28;20536;-57
2023/05/15 12:15:12;;;;;;;11.70;7.38;;;;;;;;;;5012918;28;20053;-57
2023/05/15 12:17:39;;;;;;;14.23;7.88;;;;;;;;;;5013508;28;20045;-57
2023/05/15 12:20:10;;;;;;;12.00;8.15;;;;;;;;;;5029389;28;20030;-56
2023/05/15 12:22:37;;;;;;;9.55;7.55;;;;;;;;;;5012854;28;20104;-57
2023/05/15 12:25:03;;;;;;;14.90;7.32;;;;;;;;;;5015515;28;20053;-57
2023/05/15 12:27:30;;;;;;;9.85;6.03;;;;;;;;;;5013958;28;20096;-57
2023/05/15 12:29:56;;;;;;;11.63;8.45;;;;;;;;;;5014316;28;20177;-57
2023/05/15 12:32:22;;;;;;;12.45;7.68;;;;;;;;;;5014791;28;20508;-56
2023/05/15 12:34:48;;;;;;;11.77;8.05;;;;;;;;;;5046663;28;20046;-57
2023/05/15 12:37:14;;;;;;;14.73;9.95;;;;;;;;;;5014879;28;20053;-57
2023/05/15 12:39:50;;;;;;;13.07;7.43;;;;;;;;;;5013908;28;20049;-57
2023/05/15 12:42:16;;;;;;;17.73;8.30;;;;;;;;;;5014524;28;20500;-57
2023/05/15 12:44:43;;;;;;;15.25;9.02;;;;;;;;;;5010237;28;20428;-57
2023/05/15 12:47:09;;;;;;;10.60;7.68;;;;;;;;;;5013953;28;20050;-57
2023/05/15 12:49:35;;;;;;;14.43;8.57;;;;;;;;;;5013650;28;20046;-57
2023/05/15 12:52:09;;;;;;;16.38;9.82;;;;;;;;;;5012398;28;20081;-57
2023/05/15 12:54:42;;;;;;;12.40;8.52;;;;;;;;;;5011876;28;20049;-57
2023/05/15 12:57:09;;;;;;;10.82;7.45;;;;;;;;;;5014590;28;21221;-57
2023/05/15 12:59:35;;;;;;;10.60;7.60;;;;;;;;;;5013242;28;20046;-57
2023/05/15 13:02:02;;;;;;;15.85;8.10;;;;;;;;;;5010403;28;20038;-57
2023/05/15 13:04:28;;;;;;;16.83;8.18;;;;;;;;;;5013938;28;20056;-57
2023/05/15 13:06:54;;;;;;;11.60;7.65;;;;;;;;;;5013965;28;20070;-57
2023/05/15 13:09:21;;;;;;;10.98;8.02;;;;;;;;;;5015422;28;20585;-57
2023/05/15 13:11:47;;;;;;;13.80;7.70;;;;;;;;;;5028795;28;20045;-57
2023/05/15 13:14:16;;;;;;;11.95;7.78;;;;;;;;;;5014909;28;20761;-57
2023/05/15 13:16:43;;;;;;;15.70;8.20;;;;;;;;;;5011987;28;20049;-57
2023/05/15 13:19:09;;;;;;;11.05;6.80;;;;;;;;;;5011182;28;20042;-57
2023/05/15 13:21:35;;;;;;;10.40;7.22;;;;;;;;;;5014793;28;20046;-57
2023/05/15 13:24:01;;;;;;;10.95;6.38;;;;;;;;;;5014953;28;20045;-57
2023/05/15 13:26:27;;;;;;;14.95;7.53;;;;;;;;;;5013565;28;20058;-57
2023/05/15 13:28:53;;;;;;;11.93;7.65;;;;;;;;;;5014856;28;20049;-57
2023/05/15 13:31:20;;;;;;;10.38;6.72;;;;;;;;;;5012599;28;20045;-57
2023/05/15 13:33:46;;;;;;;16.05;7.82;;;;;;;;;;5011259;28;20042;-57
2023/05/15 13:36:12;;;;;;;15.05;7.65;;;;;;;;;;5011767;28;20038;-57
2023/05/15 13:38:38;;;;;;;14.05;7.65;;;;;;;;;;5013601;28;20050;-57
2023/05/15 13:41:04;;;;;;;13.43;8.73;;;;;;;;;;5012695;28;20046;-57
2023/05/15 13:43:30;;;;;;;11.50;8.23;;;;;;;;;;5013227;28;20069;-57
2023/05/15 13:45:56;;;;;;;16.38;9.27;;;;;;;;;;5012851;28;20065;-57
2023/05/15 13:48:22;;;;;;;12.20;8.90;;;;;;;;;;5007318;28;20070;-56
2023/05/15 13:50:48;;;;;;;12.32;8.15;;;;;;;;;;5008587;28;20126;-57
2023/05/15 13:53:15;;;;;;;15.85;9.30;;;;;;;;;;5009556;28;20102;-57
2023/05/15 13:55:45;;;;;;;13.32;7.18;;;;;;;;;;5010768;28;20048;-56
2023/05/15 13:58:14;;;;;;;13.90;8.63;;;;;;;;;;5012234;28;20042;-57
2023/05/15 14:00:41;;;;;;;18.98;8.80;;;;;;;;;;5009007;28;20042;-57
2023/05/15 14:03:07;;;;;;;14.25;8.02;;;;;;;;;;5009457;28;20073;-58
2023/05/15 14:05:33;;;;;;;14.07;9.48;;;;;;;;;;5009169;28;20540;-57
2023/05/15 14:08:00;;;;;;;10.27;7.90;;;;;;;;;;5014519;28;20526;-57
2023/05/15 14:10:26;;;;;;;11.50;8.00;;;;;;;;;;5010583;28;20069;-57
2023/05/15 14:12:52;;;;;;;13.20;7.95;;;;;;;;;;5015607;28;20125;-58
2023/05/15 14:15:18;;;;;;;14.57;8.55;;;;;;;;;;5015866;28;21046;-57
2023/05/15 14:17:47;;;;;;;17.70;9.23;;;;;;;;;;5016344;28;20121;-57
2023/05/15 14:20:13;;;;;;;11.48;8.93;;;;;;;;;;5015210;28;20046;-58
2023/05/15 14:22:40;;;;;;;12.10;9.45;;;;;;;;;;5047000;28;20062;-57